Terminal Aerodrome Forecast
Issued by NWS

Home | Current Version | Previous Version | Text Only | Print | Product List | Glossary On
Versions: 1 2 3 4 5 6 7 8 9 10 11 12 13
292
FTUS42 TJSJ 262100 AAA
TAFISX
TAF AMD
TISX 262100Z 2621/2718 08008KT P6SM SCT025 SCT040
     FM271300 11013KT P6SM SCT025=

USA.gov is the U.S. government's official web portal to all federal, state and local government web resources and services.